Wednesday, June 29, 2016
10:55 UTC
  |  Log In   |  Register Free
Airport Search:

New River Valley Airport
(KPSK)

New River Valley Airport Diagram
No Airport Diagram Available

FAA data valid effective May 26 2016 - Jul 21 2016 (unless otherwise noted).

 
 
 
 
 
 
 
 
 
 
 
 
 
 
Current Aviation Weather for KPSK

Weather Summary


The most recent METAR observation for PSK was updated at: 12:55 UTC
METAR for KPSK is not available. Closest METAR is for KBCB
KPSK  (most recent observation was updatred at 29:10 UTC)
291035Z AUTO 00000KT 10SM CLR 17/16 A3005 RMK AO2 T01680162

KBCB  (13.6 nm SW)   (most recent observation was updated at 29:10 UTC)
291035Z AUTO 00000KT 7SM CLR 16/16 A3006 RMK AO2 T01600160 TSNO

KHLX  (23.4 nm NE)   (most recent observation was updated at 29:10 UTC)
291035Z AUTO 34004KT 10SM CLR 17/16 A3005 RMK AO2 T01740155

TAF for KPSK is not available.
KBCB  (13.6 nm SW)   (most recent observation was updatred at 29:09 UTC)
AMD 290905Z 2909/3006 00000KT P6SM SKC TEMPO 2909/2912 4SM BR SCT007 FM291500 30008KT P6SM SCT040 FM291900 28005KT P6SM BKN050


KBLF  (27.0 nm SE)   (most recent observation was updatred at 29:09 UTC)
AMD 290958Z 2910/3006 27004KT P6SM SKC TEMPO 2910/2912 4SM BR SCT002 FM291500 30006KT P6SM SCT035 BKN050 FM291900 31008KT P6SM BKN045


GlobalAir.com is loading additional information.
 Current Weather at PSK
66.0 F° (18.8 C°)

North winds at 0.0 mph
Pressure:
30.04 in
Humidity:
89%
Wind:
North at 0.0 mph
Dew Point:
62.4 F° (16.9 C°)
Visibility:
10.00 mi
PSK NOAA Radar




Find All Airport Services Find A Hotel Find A Rental Car Find A Golf Course Find A Restaurant $100 Hamburger



Airport Weather Forecast for KPSK

Translated METAR for KPSK (1035 UTC)
METAR:
KPSK 291035Z AUTO 00000KT 10SM CLR 17/16 A3005 RMK AO2 T01680162
Conditions at:
KPSK (New River Valley, VA) observed 1035 UTC 29 June 2016
Temperature:
17°C (62.6°F)
Dewpoint:
16°C (60.8°F) [RH = 93.8]
Pressure:
30.05 inches Hg (1017.6 mb)
Winds:
from the N (000 degrees) at 0 mph (0 knots: 0 m/s)
Visibility:
10 mile(s)
Ceiling:
at least 12,000 feet AGL
Clouds:
Clear below 12,000 feet AGL
Remarks:
site is un-manned
site is automated and HAS a precipitation sensor

Translated TAF for KBCB (Virginia Tech/Montgomery Executive, VA) (0905 UTC)
TAF text:
KBCB 290905Z 2909/3006 00000KT P6SM SKC
Forecast period:
Wednesday Jun 29 2016 09:00 UTC - Thursday Jun 30 2016 06:00 UTC
Forecast type:
FROM: standard forecast or significant change
Winds:
from the N (000 degrees) at 0 mph (0 knots: 0 m/s)
Visibility:
6 or more mile(s) (9.7+ km)
Ceiling:
at least 12,000 feet AGL
Clouds:
Clear Skies
Weather:
no significant weather observed at this time
TAF text:
2909/2912 4SM BR SCT007
Forecast period:
Thursday Jun 30 2016 09:00 UTC - Thursday Jun 30 2016 12:00 UTC
Forecast type:
FROM: standard forecast or significant change
Winds:
Visibility:
4 mile(s) (6.4 km)
Ceiling:
at least 12,000 feet AGL
Clouds:
Scattered Clouds at 700 feet AGL
Weather:
Moderate Mist
TAF text:
FM291500 30008KT P6SM SCT040
Forecast period:
Wednesday Jun 29 2016 15:00 UTC - Wednesday Jun 29 2016 19:00 UTC
Forecast type:
FROM: standard forecast or significant change
Winds:
from the WNW (300 degrees) at 9.2 mph (8 knots: 4.1 m/s)
Visibility:
6 or more mile(s) (9.7+ km)
Ceiling:
at least 12,000 feet AGL
Clouds:
Scattered Clouds at 4,000 feet AGL
Weather:
no significant weather observed at this time
TAF text:
FM291900 28005KT P6SM BKN050
Forecast period:
Wednesday Jun 29 2016 19:00 UTC - Thursday Jun 30 2016 06:00 UTC
Forecast type:
FROM: standard forecast or significant change
Winds:
from the W (280 degrees) at 5.8 mph (5 knots: 2.6 m/s)
Visibility:
6 or more mile(s) (9.7+ km)
Ceiling:
5,000 feet AGL
Clouds:
Broken Cloud Cover at 5,000 feet AGL
Weather:
no significant weather observed at this time
FBO's on the Field
FBO Company Facility Photos Services Transportation Aviation Fuel Prices: Prices include tax
Catering Weather Repair Courtesy Rental Type 100LL JetA JetA+ MOGAS 8087
 
New River Valley Airport

This FBO has not yet been rated
FS:Avfuel
Last Updated: Jun-06
Login to update fuel prices
SS:
Contact New River Valley AirportMore FBO Information
 
Add another FBO Facility Photos Catering Weather Repair Courtesy Rental Type 100LL JetA JetA+ MOGAS 8087
Services Transportation Aviation Fuel Prices: Prices include tax


model-print
model-print
model-print
model-print